createdAt,value
2023-04-21T00:01:42.996Z,86.72
2023-04-21T00:07:44.904Z,86.64
2023-04-21T00:13:46.868Z,83.64
2023-04-21T00:19:48.775Z,84.46
2023-04-21T00:25:53.738Z,83.19
2023-04-21T00:31:55.758Z,82.66
2023-04-21T00:37:57.850Z,83.16
2023-04-21T00:44:04.091Z,83.06
2023-04-21T00:50:06.533Z,82.95
2023-04-21T00:56:09.076Z,83.37
2023-04-21T01:02:11.288Z,84.39
2023-04-21T01:08:14.144Z,84.52
2023-04-21T01:14:16.021Z,84.80
2023-04-21T01:20:17.932Z,85.07
2023-04-21T01:26:21.719Z,85.70
2023-04-21T01:32:27.854Z,86.02
2023-04-21T01:38:29.992Z,85.18
2023-04-21T01:44:32.285Z,86.32
2023-04-21T01:50:34.294Z,86.80
2023-04-21T01:56:36.211Z,86.81
2023-04-21T02:02:38.261Z,87.60
2023-04-21T02:08:40.325Z,88.68
2023-04-21T02:14:42.284Z,89.72
2023-04-21T02:20:44.571Z,89.73
2023-04-21T02:26:46.470Z,90.23
2023-04-21T02:32:48.382Z,89.84
2023-04-21T02:38:51.139Z,90.10
2023-04-21T02:44:53.077Z,90.36
2023-04-21T02:50:54.949Z,90.30
2023-04-21T02:56:56.971Z,89.03
2023-04-21T03:02:59.339Z,91.91
2023-04-21T03:09:01.416Z,92.35
2023-04-21T03:15:04.137Z,91.60
2023-04-21T03:21:06.174Z,92.41
2023-04-21T03:27:09.830Z,91.72
2023-04-21T03:33:12.858Z,91.49
2023-04-21T03:39:19.987Z,92.92
2023-04-21T03:45:23.817Z,93.41
2023-04-21T03:51:27.078Z,94.90
2023-04-21T03:57:28.981Z,95.56
2023-04-21T04:03:31.092Z,96.79
2023-04-21T04:09:33.356Z,97.05
2023-04-21T04:15:35.287Z,96.79
2023-04-21T04:21:37.643Z,97.30
2023-04-21T04:27:39.566Z,97.48
2023-04-21T04:33:42.705Z,98.06
2023-04-21T04:39:44.604Z,98.28
2023-04-21T04:45:46.489Z,99.92
2023-04-21T04:51:48.447Z,100.00
2023-04-21T04:57:50.406Z,100.00
2023-04-21T05:03:52.381Z,99.30
2023-04-21T05:09:54.600Z,98.00
2023-04-21T05:16:03.706Z,96.22
2023-04-21T05:22:08.652Z,96.05
2023-04-21T05:28:10.542Z,95.50
2023-04-21T05:34:12.437Z,95.28
2023-04-21T05:40:14.398Z,94.14
2023-04-21T05:46:16.361Z,93.26
2023-04-21T05:52:18.272Z,93.16
2023-04-21T05:58:20.170Z,92.55
2023-04-21T06:04:22.292Z,91.89
2023-04-21T06:10:24.724Z,91.36
2023-04-21T06:16:27.179Z,87.01
2023-04-21T06:22:29.206Z,86.07
2023-04-21T06:28:36.272Z,85.52
2023-04-21T06:34:39.380Z,83.07
2023-04-21T06:40:41.436Z,80.19
2023-04-21T06:46:43.481Z,79.65
2023-04-21T06:52:45.389Z,71.90
2023-04-21T06:58:47.275Z,59.87
2023-04-21T07:04:49.307Z,59.64
2023-04-21T07:10:51.488Z,59.86
2023-04-21T07:16:54.990Z,60.77
2023-04-21T07:22:56.964Z,58.14
2023-04-21T07:28:58.851Z,59.07
2023-04-21T07:35:02.091Z,55.81
2023-04-21T07:41:04.960Z,55.47
2023-04-21T07:47:06.906Z,56.08
2023-04-21T07:53:08.825Z,53.63
2023-04-21T07:59:10.982Z,54.37
2023-04-21T08:05:13.203Z,54.55
2023-04-21T08:11:15.338Z,53.03
2023-04-21T08:17:17.706Z,52.49
2023-04-21T08:23:20.041Z,51.66
2023-04-21T08:29:21.988Z,51.14
2023-04-21T08:35:24.518Z,48.76
2023-04-21T08:41:27.195Z,47.76
2023-04-21T08:47:29.810Z,49.67
2023-04-21T08:53:31.868Z,50.04
2023-04-21T08:59:33.786Z,47.39
2023-04-21T09:05:40.653Z,48.47
2023-04-21T09:11:44.982Z,46.61
2023-04-21T09:17:46.996Z,46.37
2023-04-21T09:23:52.095Z,44.68
2023-04-21T09:29:54.117Z,43.04
2023-04-21T09:35:56.045Z,44.46
2023-04-21T09:41:59.019Z,43.21
2023-04-21T09:48:02.436Z,41.77
2023-04-21T09:54:29.158Z,40.41
2023-04-21T10:00:32.440Z,38.88
2023-04-21T10:06:34.762Z,38.88
2023-04-21T10:12:36.706Z,38.42
2023-04-21T10:18:46.156Z,37.73
2023-04-21T10:24:48.282Z,33.85
2023-04-21T10:30:50.244Z,33.62
2023-04-21T10:36:54.800Z,32.06
2023-04-21T10:42:56.892Z,31.29
2023-04-21T10:49:13.311Z,30.39
2023-04-21T10:55:17.027Z,30.38
2023-04-21T11:01:19.234Z,28.72
2023-04-21T11:07:25.115Z,27.53
2023-04-21T11:13:34.816Z,27.70
2023-04-21T11:19:38.850Z,26.15
2023-04-21T11:25:40.937Z,25.16
2023-04-21T11:31:47.935Z,23.58
2023-04-21T11:37:54.261Z,24.13
2023-04-21T11:43:56.201Z,24.06
2023-04-21T11:50:01.511Z,22.83
2023-04-21T11:56:03.457Z,23.66
2023-04-21T12:02:05.454Z,23.27
2023-04-21T12:08:16.118Z,22.65
2023-04-21T12:14:26.926Z,23.26
2023-04-21T12:20:30.215Z,21.98
2023-04-21T12:26:32.428Z,22.37
2023-04-21T12:32:34.410Z,21.17
2023-04-21T12:38:36.463Z,22.83
2023-04-21T12:44:40.189Z,22.33
2023-04-21T12:50:42.099Z,22.37
2023-04-21T12:56:44.224Z,21.40
2023-04-21T13:02:46.697Z,22.33
2023-04-21T13:08:48.811Z,22.63
2023-04-21T13:14:50.805Z,21.10
2023-04-21T13:20:52.711Z,22.72
2023-04-21T13:26:54.665Z,22.08
2023-04-21T13:32:56.623Z,22.21
2023-04-21T13:39:00.692Z,21.52
2023-04-21T13:45:03.268Z,22.98
2023-04-21T13:51:05.504Z,24.02
2023-04-21T13:57:07.535Z,23.55
2023-04-21T14:03:11.360Z,24.87
2023-04-21T14:09:13.511Z,24.55
2023-04-21T14:15:15.489Z,25.13
2023-04-21T14:21:17.385Z,25.04
2023-04-21T14:27:19.415Z,24.75
2023-04-21T14:33:21.370Z,29.36
2023-04-21T14:39:23.769Z,28.68
2023-04-21T14:45:25.861Z,31.30
2023-04-21T14:51:28.152Z,32.44
2023-04-21T14:57:30.086Z,33.26
2023-04-21T15:03:32.121Z,31.38
2023-04-21T15:09:35.969Z,34.64
2023-04-21T15:15:38.239Z,31.65
2023-04-21T15:21:40.853Z,29.31
2023-04-21T15:27:42.810Z,26.76
2023-04-21T15:33:44.735Z,24.32
2023-04-21T15:39:46.763Z,22.91
2023-04-21T15:45:48.722Z,22.96
2023-04-21T15:51:50.810Z,22.52
2023-04-21T15:57:52.736Z,21.44
2023-04-21T16:03:54.788Z,22.05
2023-04-21T16:09:56.981Z,22.99
2023-04-21T16:15:59.164Z,24.04
2023-04-21T16:22:03.247Z,23.82
2023-04-21T16:28:06.577Z,24.33
2023-04-21T16:34:08.542Z,23.45
2023-04-21T16:40:11.479Z,24.14
2023-04-21T16:46:13.838Z,24.38
2023-04-21T16:52:15.850Z,24.86
2023-04-21T16:58:17.874Z,24.67
2023-04-21T17:04:19.811Z,24.39
2023-04-21T17:10:22.043Z,25.38
2023-04-21T17:16:24.134Z,27.00
2023-04-21T17:22:26.202Z,28.44
2023-04-21T17:28:28.142Z,28.50
2023-04-21T17:34:31.460Z,28.21
2023-04-21T17:40:33.502Z,29.96
2023-04-21T17:46:36.896Z,31.39
2023-04-21T17:52:39.921Z,32.67
2023-04-21T17:58:42.398Z,34.47
2023-04-21T18:04:44.802Z,35.25
2023-04-21T18:10:47.156Z,36.78
2023-04-21T18:16:49.025Z,38.81
2023-04-21T18:22:51.887Z,42.14
2023-04-21T18:28:58.068Z,44.01
2023-04-21T18:35:00.823Z,45.52
2023-04-21T18:41:02.869Z,45.48
2023-04-21T18:47:04.905Z,46.28
2023-04-21T18:53:08.530Z,46.48
2023-04-21T18:59:10.501Z,47.22
2023-04-21T19:05:12.374Z,46.83
2023-04-21T19:11:17.732Z,48.16
2023-04-21T19:17:19.748Z,47.38
2023-04-21T19:23:26.662Z,48.02
2023-04-21T19:29:28.788Z,48.63
2023-04-21T19:35:30.818Z,48.07
2023-04-21T19:41:32.762Z,49.76
2023-04-21T19:47:37.914Z,49.88
2023-04-21T19:53:39.835Z,49.79
2023-04-21T19:59:41.763Z,48.85
2023-04-21T20:05:45.601Z,49.68
2023-04-21T20:11:47.609Z,50.77
2023-04-21T20:17:49.962Z,51.39
2023-04-21T20:23:51.897Z,51.75
2023-04-21T20:29:53.796Z,52.40
2023-04-21T20:35:56.938Z,53.43
2023-04-21T20:42:12.634Z,55.14
2023-04-21T20:48:15.741Z,55.59
2023-04-21T20:54:17.664Z,56.69
2023-04-21T21:00:19.826Z,58.16
2023-04-21T21:06:21.766Z,59.07
2023-04-21T21:12:23.755Z,58.86
2023-04-21T21:18:25.780Z,58.89
2023-04-21T21:24:28.821Z,58.10
2023-04-21T21:30:30.771Z,57.65
2023-04-21T21:36:33.226Z,58.29
2023-04-21T21:42:35.354Z,57.93
2023-04-21T21:48:37.337Z,57.31
2023-04-21T21:54:39.251Z,56.16
2023-04-21T22:00:42.466Z,57.00
2023-04-21T22:06:45.411Z,58.43
2023-04-21T22:12:47.327Z,60.00
2023-04-21T22:18:49.402Z,62.91
2023-04-21T22:24:51.422Z,64.11
2023-04-21T22:30:53.385Z,63.87
2023-04-21T22:36:55.567Z,63.33
2023-04-21T22:42:57.941Z,64.15
2023-04-21T22:49:02.431Z,64.12
2023-04-21T22:55:05.305Z,64.93
2023-04-21T23:01:07.439Z,65.36
2023-04-21T23:07:09.702Z,65.96
2023-04-21T23:13:11.586Z,66.44
2023-04-21T23:19:13.480Z,67.67
2023-04-21T23:25:15.590Z,68.95
2023-04-21T23:31:17.642Z,69.28
2023-04-21T23:37:19.634Z,68.35
2023-04-21T23:43:21.650Z,67.33
2023-04-21T23:49:23.604Z,67.40
2023-04-21T23:55:25.979Z,69.76
